createdAt,value
2022-08-27T00:02:19.173Z,61.00
2022-08-27T00:04:47.957Z,61.00
2022-08-27T00:07:16.808Z,61.10
2022-08-27T00:09:45.622Z,61.20
2022-08-27T00:12:14.031Z,61.20
2022-08-27T00:14:43.765Z,61.40
2022-08-27T00:17:12.664Z,61.40
2022-08-27T00:19:41.989Z,61.60
2022-08-27T00:22:12.067Z,61.60
2022-08-27T00:24:49.148Z,61.70
2022-08-27T00:27:18.946Z,61.60
2022-08-27T00:29:49.112Z,61.70
2022-08-27T00:32:18.529Z,61.80
2022-08-27T00:34:47.123Z,61.80
2022-08-27T00:37:16.233Z,61.80
2022-08-27T00:39:44.767Z,61.70
2022-08-27T00:42:14.476Z,61.80
2022-08-27T00:44:42.867Z,61.80
2022-08-27T00:47:18.241Z,61.80
2022-08-27T00:49:55.118Z,61.90
2022-08-27T00:52:27.856Z,61.80
2022-08-27T00:55:02.127Z,61.80
2022-08-27T00:57:31.795Z,61.80
2022-08-27T01:00:00.179Z,61.80
2022-08-27T01:02:30.834Z,61.70
2022-08-27T01:05:03.148Z,61.80
2022-08-27T01:07:34.963Z,61.70
2022-08-27T01:10:07.217Z,61.80
2022-08-27T01:12:36.325Z,61.80
2022-08-27T01:15:12.003Z,61.70
2022-08-27T01:17:46.602Z,61.70
2022-08-27T01:20:19.646Z,61.70
2022-08-27T01:22:58.424Z,61.70
2022-08-27T01:25:29.024Z,61.70
2022-08-27T01:28:00.587Z,61.60
2022-08-27T01:30:29.991Z,61.60
2022-08-27T01:32:58.861Z,61.60
2022-08-27T01:35:28.017Z,61.50
2022-08-27T01:37:57.328Z,61.50
2022-08-27T01:40:27.190Z,61.50
2022-08-27T01:42:57.875Z,61.50
2022-08-27T01:45:30.633Z,61.60
2022-08-27T01:47:59.996Z,61.60
2022-08-27T01:50:32.901Z,61.60
2022-08-27T01:53:05.636Z,61.50
2022-08-27T01:55:35.484Z,61.60
2022-08-27T01:58:04.673Z,61.60
2022-08-27T02:00:37.381Z,61.50
2022-08-27T02:03:07.345Z,61.50
2022-08-27T02:05:44.665Z,61.50
2022-08-27T02:08:15.938Z,61.50
2022-08-27T02:10:48.068Z,61.50
2022-08-27T02:13:17.378Z,62.40
2022-08-27T02:15:45.951Z,61.60
2022-08-27T02:18:15.501Z,61.70
2022-08-27T02:20:44.894Z,61.60
2022-08-27T02:23:13.561Z,61.70
2022-08-27T02:25:42.680Z,61.60
2022-08-27T02:28:12.516Z,61.60
2022-08-27T02:30:41.149Z,61.70
2022-08-27T02:33:10.960Z,61.60
2022-08-27T02:35:40.690Z,61.70
2022-08-27T02:38:09.671Z,61.70
2022-08-27T02:40:38.340Z,61.70
2022-08-27T02:43:06.886Z,61.80
2022-08-27T02:45:37.863Z,61.70
2022-08-27T02:48:07.830Z,61.70
2022-08-27T02:50:37.144Z,61.80
2022-08-27T02:53:07.365Z,61.70
2022-08-27T02:55:36.502Z,61.80
2022-08-27T02:58:06.438Z,61.70
2022-08-27T03:00:36.318Z,61.80
2022-08-27T03:03:05.066Z,61.80
2022-08-27T03:05:33.656Z,61.80
2022-08-27T03:08:01.972Z,61.80
2022-08-27T03:10:30.987Z,61.80
2022-08-27T03:12:59.385Z,61.80
2022-08-27T03:15:27.703Z,61.80
2022-08-27T03:18:14.865Z,61.80
2022-08-27T03:20:44.987Z,61.80
2022-08-27T03:23:15.157Z,61.80
2022-08-27T03:25:46.635Z,61.80
2022-08-27T03:28:22.568Z,61.80
2022-08-27T03:30:55.281Z,61.70
2022-08-27T03:33:26.242Z,62.00
2022-08-27T03:35:54.800Z,61.80
2022-08-27T03:38:24.127Z,61.80
2022-08-27T03:40:52.668Z,61.80
2022-08-27T03:43:23.314Z,61.80
2022-08-27T03:46:02.033Z,61.80
2022-08-27T03:48:34.142Z,61.70
2022-08-27T03:51:08.007Z,61.70
2022-08-27T03:53:37.566Z,61.80
2022-08-27T03:56:07.343Z,61.70
2022-08-27T03:58:36.242Z,61.70
2022-08-27T04:01:06.192Z,61.70
2022-08-27T04:03:36.859Z,61.70
2022-08-27T04:06:05.838Z,61.80
2022-08-27T04:08:34.201Z,61.80
2022-08-27T04:11:06.225Z,61.70
2022-08-27T04:13:34.660Z,61.70
2022-08-27T04:16:03.003Z,61.70
2022-08-27T04:18:31.370Z,61.80
2022-08-27T04:21:08.959Z,61.70
2022-08-27T04:23:37.286Z,61.90
2022-08-27T04:26:06.816Z,61.70
2022-08-27T04:28:38.601Z,61.70
2022-08-27T04:31:27.821Z,61.70
2022-08-27T04:33:56.209Z,61.70
2022-08-27T04:36:26.047Z,61.70
2022-08-27T04:38:54.381Z,61.90
2022-08-27T04:41:23.249Z,61.70
2022-08-27T04:43:54.156Z,61.70
2022-08-27T04:46:25.484Z,61.80
2022-08-27T04:48:55.186Z,61.80
2022-08-27T04:51:24.935Z,61.80
2022-08-27T04:53:53.753Z,61.80
2022-08-27T04:56:24.091Z,61.90
2022-08-27T04:58:52.992Z,61.90
2022-08-27T05:01:24.498Z,61.90
2022-08-27T05:03:54.025Z,61.90
2022-08-27T05:06:23.905Z,61.90
2022-08-27T05:08:54.967Z,62.70
2022-08-27T05:11:28.416Z,62.00
2022-08-27T05:13:56.883Z,62.00
2022-08-27T05:16:25.556Z,62.00
2022-08-27T05:18:54.640Z,62.00
2022-08-27T05:21:25.599Z,62.00
2022-08-27T05:23:57.576Z,62.00
2022-08-27T05:26:26.366Z,62.00
2022-08-27T05:28:54.999Z,62.00
2022-08-27T05:31:24.090Z,62.00
2022-08-27T05:33:52.577Z,62.00
2022-08-27T05:36:26.257Z,62.00
2022-08-27T05:38:58.309Z,62.10
2022-08-27T05:41:34.296Z,62.10
2022-08-27T05:44:36.738Z,62.20
2022-08-27T05:46:56.192Z,62.10
2022-08-27T05:49:24.514Z,62.00
2022-08-27T05:51:52.855Z,62.10
2022-08-27T05:54:22.812Z,62.20
2022-08-27T05:56:51.263Z,62.10
2022-08-27T05:59:37.914Z,62.10
2022-08-27T06:02:07.220Z,62.10
2022-08-27T06:04:35.722Z,62.10
2022-08-27T06:07:04.837Z,62.20
2022-08-27T06:09:34.586Z,62.20
2022-08-27T06:12:03.472Z,62.20
2022-08-27T06:14:32.166Z,62.20
2022-08-27T06:17:02.007Z,62.20
2022-08-27T06:19:30.884Z,62.40
2022-08-27T06:22:24.386Z,62.50
2022-08-27T06:24:54.298Z,62.80
2022-08-27T06:27:22.655Z,62.50
2022-08-27T06:29:51.012Z,62.50
2022-08-27T06:32:19.983Z,62.70
2022-08-27T06:34:48.746Z,62.80
2022-08-27T06:37:17.052Z,62.80
2022-08-27T06:39:45.583Z,62.80
2022-08-27T06:42:15.280Z,62.90
2022-08-27T06:44:43.644Z,63.10
2022-08-27T06:47:12.228Z,62.90
2022-08-27T06:49:46.301Z,63.00
2022-08-27T06:52:16.043Z,63.00
2022-08-27T06:54:45.084Z,63.10
2022-08-27T06:57:14.764Z,63.00
2022-08-27T06:59:44.159Z,63.00
2022-08-27T07:02:12.723Z,62.90
2022-08-27T07:04:41.133Z,62.80
2022-08-27T07:07:13.751Z,62.70
2022-08-27T07:09:42.368Z,62.70
2022-08-27T07:12:10.819Z,62.50
2022-08-27T07:14:40.572Z,62.50
2022-08-27T07:17:11.320Z,62.40
2022-08-27T07:19:45.524Z,62.50
2022-08-27T07:22:14.228Z,62.40
2022-08-27T07:24:42.623Z,62.40
2022-08-27T07:27:11.070Z,62.40
2022-08-27T07:29:41.589Z,62.40
2022-08-27T07:32:10.115Z,62.60
2022-08-27T07:34:38.515Z,62.50
2022-08-27T07:37:06.835Z,62.60
2022-08-27T07:39:35.346Z,62.70
2022-08-27T07:42:21.558Z,62.70
2022-08-27T07:44:51.396Z,62.80
2022-08-27T07:47:19.814Z,63.00
2022-08-27T07:49:48.697Z,63.00
2022-08-27T07:52:17.238Z,63.00
2022-08-27T07:54:46.023Z,63.10
2022-08-27T07:57:14.363Z,63.20
2022-08-27T07:59:42.739Z,63.20
2022-08-27T08:02:12.870Z,63.20
2022-08-27T08:04:41.266Z,63.20
2022-08-27T08:07:09.631Z,63.40
2022-08-27T08:09:38.054Z,63.30
2022-08-27T08:12:07.536Z,63.20
2022-08-27T08:14:36.025Z,63.20
2022-08-27T08:17:10.110Z,63.20
2022-08-27T08:19:40.456Z,63.20
2022-08-27T08:22:09.356Z,63.20
2022-08-27T08:24:37.757Z,63.10
2022-08-27T08:27:07.900Z,63.10
2022-08-27T08:29:37.873Z,63.10
2022-08-27T08:32:07.870Z,63.20
2022-08-27T08:34:36.950Z,63.20
2022-08-27T08:37:07.805Z,63.20
2022-08-27T08:39:38.277Z,63.30
2022-08-27T08:42:10.323Z,63.30
2022-08-27T08:44:48.585Z,63.30
2022-08-27T08:47:21.589Z,63.30
2022-08-27T08:49:56.012Z,63.20
2022-08-27T08:52:47.855Z,63.20
2022-08-27T08:55:31.914Z,63.30
2022-08-27T08:58:13.345Z,63.30
2022-08-27T09:00:46.313Z,63.20
2022-08-27T09:03:16.715Z,63.00
2022-08-27T09:05:50.072Z,63.00
2022-08-27T09:08:41.788Z,63.80
2022-08-27T09:11:23.061Z,63.10
2022-08-27T09:13:56.028Z,63.00
2022-08-27T09:16:24.734Z,62.90
2022-08-27T09:18:53.435Z,62.90
2022-08-27T09:21:34.302Z,62.90
2022-08-27T09:24:13.846Z,63.00
2022-08-27T09:26:45.101Z,63.10
2022-08-27T09:29:17.178Z,63.00
2022-08-27T09:31:49.220Z,63.00
2022-08-27T09:34:17.628Z,63.00
2022-08-27T09:37:02.981Z,63.00
2022-08-27T09:39:43.507Z,63.30
2022-08-27T09:42:27.556Z,63.10
2022-08-27T09:44:56.907Z,63.30
2022-08-27T09:47:26.448Z,63.10
2022-08-27T09:50:08.806Z,63.20
2022-08-27T09:52:54.944Z,63.50
2022-08-27T09:55:44.740Z,63.30
2022-08-27T09:58:21.820Z,63.30
2022-08-27T10:01:00.917Z,63.30
2022-08-27T10:03:33.222Z,63.10
2022-08-27T10:06:02.267Z,63.30
2022-08-27T10:08:39.829Z,63.30
2022-08-27T10:11:16.323Z,63.30
2022-08-27T10:13:54.191Z,63.20
2022-08-27T10:16:42.005Z,63.20
2022-08-27T10:19:23.285Z,63.30
2022-08-27T10:22:01.167Z,63.40
2022-08-27T10:24:39.827Z,63.30
2022-08-27T10:27:19.364Z,63.30
2022-08-27T10:29:55.849Z,63.40
2022-08-27T10:32:57.630Z,63.50
2022-08-27T10:35:48.348Z,63.60
2022-08-27T10:38:43.886Z,63.40
2022-08-27T10:41:19.088Z,63.40
2022-08-27T10:44:34.609Z,63.40
2022-08-27T10:47:18.698Z,63.50
2022-08-27T10:50:03.416Z,63.30
2022-08-27T10:52:43.035Z,63.40
2022-08-27T10:55:18.816Z,63.40
2022-08-27T10:58:22.601Z,63.40
2022-08-27T11:01:04.168Z,63.80
2022-08-27T11:03:41.273Z,63.70
2022-08-27T11:06:24.899Z,63.60
2022-08-27T11:08:59.191Z,63.80
2022-08-27T11:14:33.961Z,63.80
2022-08-27T11:17:09.090Z,63.90
2022-08-27T11:19:50.576Z,63.90
2022-08-27T11:22:30.961Z,64.00
2022-08-27T11:25:05.219Z,63.90
2022-08-27T11:27:35.009Z,63.80
2022-08-27T11:30:08.334Z,63.80
2022-08-27T11:32:49.385Z,63.80
2022-08-27T11:36:06.623Z,64.10
2022-08-27T11:38:55.220Z,64.20
2022-08-27T11:42:07.140Z,64.00
2022-08-27T11:44:43.246Z,63.90
2022-08-27T11:47:16.549Z,63.40
2022-08-27T11:49:50.037Z,63.10
2022-08-27T11:52:29.281Z,63.10
2022-08-27T11:55:12.806Z,63.10
2022-08-27T11:57:41.468Z,62.90
2022-08-27T12:00:23.340Z,62.70
2022-08-27T12:03:02.611Z,62.80
2022-08-27T12:05:44.592Z,62.80
2022-08-27T12:08:27.733Z,62.80
2022-08-27T12:11:14.661Z,62.70
2022-08-27T12:13:52.420Z,62.80
2022-08-27T12:16:32.211Z,62.70
2022-08-27T12:19:18.751Z,62.80
2022-08-27T12:22:08.085Z,62.70
2022-08-27T12:24:55.938Z,62.70
2022-08-27T12:27:38.395Z,62.60
2022-08-27T12:30:28.004Z,62.50
2022-08-27T12:32:59.496Z,62.60
2022-08-27T12:35:34.146Z,62.40
2022-08-27T12:38:14.754Z,62.40
2022-08-27T12:40:51.760Z,62.40
2022-08-27T12:43:22.889Z,62.30
2022-08-27T12:45:56.846Z,62.20
2022-08-27T12:48:31.563Z,62.10
2022-08-27T12:51:04.877Z,62.20
2022-08-27T12:53:45.067Z,62.30
2022-08-27T12:56:41.960Z,62.40
2022-08-27T12:59:38.865Z,62.40
2022-08-27T13:02:26.567Z,62.40
2022-08-27T13:04:55.592Z,62.40
2022-08-27T13:07:28.770Z,62.30
2022-08-27T13:10:22.868Z,62.30
2022-08-27T13:13:05.336Z,62.30
2022-08-27T13:15:35.341Z,62.50
2022-08-27T13:18:07.677Z,62.30
2022-08-27T13:20:40.212Z,62.30
2022-08-27T13:23:19.813Z,62.20
2022-08-27T13:26:01.365Z,62.10
2022-08-27T13:28:31.344Z,62.20
2022-08-27T13:31:01.505Z,62.30
2022-08-27T13:33:34.174Z,62.40
2022-08-27T13:36:04.060Z,62.40
2022-08-27T13:38:36.232Z,62.50
2022-08-27T13:41:10.019Z,62.70
2022-08-27T13:43:42.396Z,62.70
2022-08-27T13:46:16.248Z,62.90
2022-08-27T13:48:48.095Z,62.90
2022-08-27T13:51:17.187Z,63.50
2022-08-27T13:54:07.125Z,62.90
2022-08-27T13:56:40.395Z,63.00
2022-08-27T13:59:12.306Z,62.90
2022-08-27T14:01:56.049Z,62.90
2022-08-27T14:04:27.960Z,63.10
2022-08-27T14:06:56.585Z,63.10
2022-08-27T14:09:28.662Z,63.30
2022-08-27T14:12:05.441Z,63.40
2022-08-27T14:14:41.599Z,63.50
2022-08-27T14:17:27.898Z,63.50
2022-08-27T14:20:01.801Z,63.70
2022-08-27T14:22:30.358Z,63.60
2022-08-27T14:24:58.733Z,63.40
2022-08-27T14:27:29.661Z,64.40
2022-08-27T14:29:58.522Z,63.80
2022-08-27T14:32:27.008Z,63.80
2022-08-27T14:34:55.330Z,63.90
2022-08-27T14:37:23.892Z,63.90
2022-08-27T14:39:52.701Z,63.90
2022-08-27T14:42:21.523Z,63.80
2022-08-27T14:44:53.288Z,63.80
2022-08-27T14:47:21.834Z,64.00
2022-08-27T14:49:55.274Z,64.00
2022-08-27T14:52:23.618Z,64.10
2022-08-27T14:54:51.951Z,64.10
2022-08-27T14:57:21.126Z,64.10
2022-08-27T14:59:49.463Z,64.10
2022-08-27T15:02:21.012Z,64.30
2022-08-27T15:04:49.442Z,64.30
2022-08-27T15:07:19.757Z,64.30
2022-08-27T15:09:51.168Z,64.20
2022-08-27T15:12:25.788Z,64.10
2022-08-27T15:14:54.775Z,64.30
2022-08-27T15:17:34.458Z,64.10
2022-08-27T15:20:07.251Z,64.10
2022-08-27T15:22:37.731Z,64.20
2022-08-27T15:25:10.951Z,64.30
2022-08-27T15:27:39.349Z,64.40
2022-08-27T15:30:10.956Z,64.30
2022-08-27T15:32:45.158Z,64.40
2022-08-27T15:35:17.674Z,64.60
2022-08-27T15:37:46.759Z,64.40
2022-08-27T15:40:17.950Z,64.40
2022-08-27T15:42:47.279Z,64.40
2022-08-27T15:45:16.083Z,64.30
2022-08-27T15:47:45.755Z,64.30
2022-08-27T15:50:14.200Z,64.20
2022-08-27T15:52:43.488Z,64.10
2022-08-27T15:55:21.804Z,64.20
2022-08-27T15:57:51.116Z,64.20
2022-08-27T16:00:21.823Z,64.00
2022-08-27T16:02:52.140Z,63.70
2022-08-27T16:05:22.025Z,63.60
2022-08-27T16:07:50.898Z,63.40
2022-08-27T16:10:19.743Z,63.40
2022-08-27T16:12:48.068Z,63.20
2022-08-27T16:15:17.521Z,63.10
2022-08-27T16:17:46.503Z,63.10
2022-08-27T16:20:17.255Z,63.90
2022-08-27T16:22:46.010Z,63.20
2022-08-27T16:25:18.409Z,63.20
2022-08-27T16:27:47.343Z,63.20
2022-08-27T16:30:16.143Z,63.50
2022-08-27T16:32:48.817Z,63.60
2022-08-27T16:35:18.983Z,63.70
2022-08-27T16:37:47.611Z,63.80
2022-08-27T16:40:16.952Z,64.00
2022-08-27T16:42:48.716Z,64.10
2022-08-27T16:45:20.175Z,64.30
2022-08-27T16:48:05.989Z,64.30
2022-08-27T16:50:36.397Z,64.20
2022-08-27T16:53:09.015Z,64.20
2022-08-27T16:55:39.125Z,64.40
2022-08-27T16:58:12.507Z,64.30
2022-08-27T17:00:41.229Z,64.30
2022-08-27T17:03:09.759Z,64.20
2022-08-27T17:05:39.551Z,64.20
2022-08-27T17:08:09.504Z,64.30
2022-08-27T17:10:45.715Z,64.30
2022-08-27T17:13:17.824Z,64.60
2022-08-27T17:15:50.846Z,64.40
2022-08-27T17:18:22.463Z,64.40
2022-08-27T17:20:53.297Z,64.50
2022-08-27T17:23:25.309Z,64.70
2022-08-27T17:25:53.811Z,64.70
2022-08-27T17:28:22.323Z,64.60
2022-08-27T17:30:50.958Z,64.60
2022-08-27T17:33:25.920Z,64.60
2022-08-27T17:35:55.637Z,64.70
2022-08-27T17:38:24.062Z,64.60
2022-08-27T17:40:53.451Z,64.70
2022-08-27T17:43:22.647Z,64.70
2022-08-27T17:45:51.227Z,64.70
2022-08-27T17:48:24.789Z,64.80
2022-08-27T17:50:56.323Z,64.80
2022-08-27T17:53:24.784Z,64.90
2022-08-27T17:55:53.135Z,64.80
2022-08-27T17:58:22.443Z,64.80
2022-08-27T18:00:51.286Z,64.70
2022-08-27T18:03:21.112Z,64.60
2022-08-27T18:05:51.144Z,64.50
2022-08-27T18:08:21.025Z,64.50
2022-08-27T18:10:51.824Z,64.60
2022-08-27T18:13:21.489Z,64.60
2022-08-27T18:15:51.520Z,64.50
2022-08-27T18:18:20.386Z,64.60
2022-08-27T18:20:48.755Z,64.60
2022-08-27T18:23:21.806Z,64.70
2022-08-27T18:25:51.142Z,64.60
2022-08-27T18:28:22.315Z,64.60
2022-08-27T18:30:51.359Z,64.70
2022-08-27T18:33:19.787Z,64.70
2022-08-27T18:35:48.192Z,64.80
2022-08-27T18:38:18.413Z,64.80
2022-08-27T18:40:50.247Z,64.90
2022-08-27T18:43:22.532Z,64.90
2022-08-27T18:45:50.939Z,64.90
2022-08-27T18:48:23.319Z,64.70
2022-08-27T18:50:57.002Z,64.80
2022-08-27T18:53:27.285Z,65.00
2022-08-27T18:55:57.433Z,65.00
2022-08-27T18:58:26.690Z,64.90
2022-08-27T19:00:58.556Z,64.90
2022-08-27T19:03:31.302Z,65.00
2022-08-27T19:06:00.590Z,65.00
2022-08-27T19:08:29.465Z,65.00
2022-08-27T19:10:59.458Z,64.90
2022-08-27T19:13:27.931Z,65.00
2022-08-27T19:15:59.755Z,65.00
2022-08-27T19:18:30.826Z,65.20
2022-08-27T19:20:59.543Z,65.10
2022-08-27T19:23:28.238Z,65.20
2022-08-27T19:25:59.278Z,65.40
2022-08-27T19:28:32.887Z,65.30
2022-08-27T19:31:01.247Z,65.40
2022-08-27T19:33:29.813Z,65.30
2022-08-27T19:35:58.784Z,65.40
2022-08-27T19:38:29.847Z,65.40
2022-08-27T19:41:00.448Z,65.40
2022-08-27T19:43:29.022Z,65.50
2022-08-27T19:45:59.340Z,65.50
2022-08-27T19:48:27.913Z,65.50
2022-08-27T19:50:56.900Z,65.50
2022-08-27T19:53:25.521Z,65.50
2022-08-27T19:55:53.992Z,65.60
2022-08-27T19:58:23.780Z,65.60
2022-08-27T20:00:52.189Z,65.80
2022-08-27T20:03:20.804Z,65.70
2022-08-27T20:05:51.711Z,65.80
2022-08-27T20:08:21.282Z,65.80
2022-08-27T20:10:49.843Z,65.90
2022-08-27T20:13:18.260Z,65.90
2022-08-27T20:15:51.373Z,66.00
2022-08-27T20:18:20.168Z,66.10
2022-08-27T20:20:48.510Z,65.90
2022-08-27T20:23:16.973Z,65.90
2022-08-27T20:25:45.507Z,66.10
2022-08-27T20:28:37.871Z,65.90
2022-08-27T20:31:04.126Z,66.00
2022-08-27T20:33:32.452Z,65.90
2022-08-27T20:36:01.494Z,65.90
2022-08-27T20:38:30.235Z,66.00
2022-08-27T20:41:00.865Z,66.00
2022-08-27T20:43:37.109Z,65.50
2022-08-27T20:46:10.703Z,65.70
2022-08-27T20:48:42.025Z,65.70
2022-08-27T20:51:13.996Z,66.10
2022-08-27T20:53:43.183Z,66.00
2022-08-27T20:56:11.618Z,65.80
2022-08-27T20:59:13.001Z,65.90
2022-08-27T21:01:43.356Z,66.20
2022-08-27T21:04:12.545Z,65.60
2022-08-27T21:06:41.172Z,65.40
2022-08-27T21:09:09.611Z,66.00
2022-08-27T21:11:37.924Z,66.00
2022-08-27T21:14:17.642Z,66.10
2022-08-27T21:16:50.083Z,66.30
2022-08-27T21:22:52.307Z,66.40
2022-08-27T21:29:21.694Z,66.50
2022-08-27T21:32:05.640Z,66.40
2022-08-27T21:34:34.490Z,66.20
2022-08-27T21:37:03.880Z,66.20
2022-08-27T21:39:38.265Z,66.20
2022-08-27T21:42:07.796Z,66.20
2022-08-27T21:44:36.852Z,66.20
2022-08-27T21:47:07.218Z,66.30
2022-08-27T21:49:36.071Z,66.20
2022-08-27T21:52:07.317Z,66.20
2022-08-27T21:54:38.936Z,66.30
2022-08-27T21:57:08.820Z,66.30
2022-08-27T21:59:44.475Z,66.30
2022-08-27T22:02:38.168Z,66.30
2022-08-27T22:05:04.715Z,66.30
2022-08-27T22:07:33.076Z,66.20
2022-08-27T22:10:01.396Z,66.30
2022-08-27T22:18:57.789Z,66.60
2022-08-27T22:21:27.195Z,66.10
2022-08-27T22:23:55.654Z,66.60
2022-08-27T22:26:24.067Z,66.50
2022-08-27T22:28:52.476Z,66.40
2022-08-27T22:31:21.185Z,66.60
2022-08-27T22:33:49.956Z,66.50
2022-08-27T22:39:51.337Z,66.70
2022-08-27T22:42:22.147Z,65.80
2022-08-27T22:44:56.522Z,67.10
2022-08-27T22:47:28.466Z,66.20
2022-08-27T22:49:57.967Z,66.40
2022-08-27T22:52:28.280Z,66.10
2022-08-27T22:54:58.985Z,66.10
2022-08-27T22:57:56.529Z,66.40
2022-08-27T23:03:21.129Z,66.90
2022-08-27T23:19:21.170Z,66.70
2022-08-27T23:21:52.593Z,65.90
2022-08-27T23:24:21.993Z,65.90
2022-08-27T23:27:08.256Z,66.20
2022-08-27T23:29:36.962Z,66.20
2022-08-27T23:32:13.206Z,66.60
2022-08-27T23:34:46.371Z,66.60
2022-08-27T23:37:15.863Z,66.40
2022-08-27T23:53:27.105Z,66.80
